Adrian, OR

9:14 AM MST on November 27, 2014 (GMT -0700)
Homedale 3SW | Change Station
CLOSE
Current Station
Personal Weather Station
Location: Homedale, 3 SW, ID
Elevation: 2365 ft
Nearby Weather Stations

Elev 2365 ft 43.57 °N, 116.97 °W | Updated 1 second ago

Mostly Cloudy
Mostly Cloudy
41.6 °F
Feels Like 42 °F
N
0.0
Wind Variable Wind from WNW
Gusts 0.0 mph

Today
High -- | Low -- °F
--% Chance of Precip.
Yesterday
High -- | Low -- °F
Precip. -- in
7:57 AM 5:14 PM
Waxing Crescent, 30% visible
Pressure 30.21 in
Visibility 6.0 miles
Clouds Scattered Clouds 10000 ft
Windchill 42 °F
Dew Point 39 °F
Humidity 92%
Rainfall 0.00 in
Snow Depth Not available.
UV 0 out of 12
Pollen 1.10 out of 12
Air Quality Not available.
Flu Activity Not available.
METAR KONO 271553Z AUTO 26003KT 6SM BR SCT100 03/02 A3016 RMK AO2 SLP228 T00330022

More Conditions Fewer Conditions

Pressure 30.21 in
Visibility 6.0 miles
Clouds Scattered Clouds 10000 ft
Windchill 42 °F
Dew Point 39 °F
Humidity 92%
Rainfall 0.00 in
Snow Depth Not available.
UV 0 out of 12
Pollen 1.10 out of 12
Air Quality Not available.
Flu Activity Not available.
METAR KONO 271553Z AUTO 26003KT 6SM BR SCT100 03/02 A3016 RMK AO2 SLP228 T00330022

More Conditions Fewer Conditions

10-Day Weather Forecast

Almanac

Astronomy

Nov. 27, 2014 Rise Set
Actual Time
Civil Twilight
Nautical Twilight
Astronomical Twilight
Moon
Length of Visible Light
Length of Day
Tomorrow will be .
, % of the Moon is Illuminated

Today's Extremes

State Highs State Lows

Community

WunderPhotos

Upload Photos

1,774,031 photos uploaded!

WunderBlogs® & News

Nearby

Air Quality

  Air Quality AQ Index Pollutant
Not available.

Snow Depth

Station Depth Elevation

Earthquake Activity

City Distance Mag. Time & Date
Minimum magnitude displayed is 2.5.

Coastal Water Temperatures

Place Temperature

Nearby Weather Stations